createdAt,value
2022-07-25T00:01:50.468Z,22.70
2022-07-25T00:04:18.841Z,22.70
2022-07-25T00:06:46.629Z,22.70
2022-07-25T00:09:13.855Z,22.70
2022-07-25T00:11:41.045Z,22.70
2022-07-25T00:14:08.187Z,22.70
2022-07-25T00:16:35.321Z,22.70
2022-07-25T00:19:02.168Z,22.70
2022-07-25T00:21:29.261Z,22.70
2022-07-25T00:23:56.066Z,22.70
2022-07-25T00:26:22.866Z,22.70
2022-07-25T00:28:49.647Z,22.70
2022-07-25T00:31:16.511Z,22.70
2022-07-25T00:33:43.360Z,22.70
2022-07-25T00:36:10.739Z,22.70
2022-07-25T00:38:37.728Z,22.70
2022-07-25T00:41:04.827Z,22.70
2022-07-25T00:43:31.842Z,22.70
2022-07-25T00:45:59.795Z,22.70
2022-07-25T00:48:28.475Z,22.70
2022-07-25T00:50:56.772Z,22.70
2022-07-25T00:53:24.273Z,22.60
2022-07-25T00:55:52.020Z,22.60
2022-07-25T00:58:19.086Z,22.60
2022-07-25T01:00:46.365Z,22.60
2022-07-25T01:03:13.271Z,22.60
2022-07-25T01:05:40.568Z,22.60
2022-07-25T01:08:08.123Z,22.60
2022-07-25T01:10:35.618Z,22.60
2022-07-25T01:13:02.470Z,22.60
2022-07-25T01:15:30.033Z,22.60
2022-07-25T01:17:57.111Z,22.60
2022-07-25T01:20:26.013Z,22.60
2022-07-25T01:22:53.927Z,22.60
2022-07-25T01:25:21.557Z,22.60
2022-07-25T01:27:52.911Z,22.60
2022-07-25T01:30:24.422Z,22.60
2022-07-25T01:32:51.789Z,22.60
2022-07-25T01:35:18.664Z,22.60
2022-07-25T01:37:46.171Z,22.60
2022-07-25T01:40:14.118Z,22.60
2022-07-25T01:42:42.223Z,22.60
2022-07-25T01:45:10.361Z,22.60
2022-07-25T01:47:37.290Z,22.60
2022-07-25T01:50:04.902Z,22.60
2022-07-25T01:52:33.089Z,22.60
2022-07-25T01:54:59.948Z,22.60
2022-07-25T01:57:31.072Z,22.60
2022-07-25T01:59:58.675Z,22.60
2022-07-25T02:02:25.782Z,22.60
2022-07-25T02:04:52.669Z,22.60
2022-07-25T02:07:20.070Z,22.60
2022-07-25T02:09:46.894Z,22.60
2022-07-25T02:12:13.653Z,22.60
2022-07-25T02:14:40.821Z,22.60
2022-07-25T02:17:07.952Z,22.60
2022-07-25T02:19:34.908Z,22.60
2022-07-25T02:22:01.747Z,22.60
2022-07-25T02:24:28.889Z,22.60
2022-07-25T02:26:55.649Z,22.60
2022-07-25T02:29:22.466Z,22.60
2022-07-25T02:31:51.858Z,22.60
2022-07-25T02:34:18.674Z,22.60
2022-07-25T02:36:45.902Z,22.60
2022-07-25T02:39:13.109Z,22.60
2022-07-25T02:41:39.930Z,22.50
2022-07-25T02:44:07.338Z,22.50
2022-07-25T02:46:34.453Z,22.50
2022-07-25T02:49:02.144Z,22.50
2022-07-25T02:51:29.453Z,22.40
2022-07-25T02:53:58.129Z,22.40
2022-07-25T02:56:26.928Z,22.40
2022-07-25T02:58:57.435Z,22.30
2022-07-25T03:01:24.398Z,22.30
2022-07-25T03:03:51.391Z,22.30
2022-07-25T03:06:18.246Z,22.30
2022-07-25T03:08:45.058Z,22.30
2022-07-25T03:11:13.511Z,22.30
2022-07-25T03:13:40.314Z,22.30
2022-07-25T03:16:07.801Z,22.30
2022-07-25T03:18:34.576Z,22.30
2022-07-25T03:21:01.387Z,22.30
2022-07-25T03:23:28.583Z,22.30
2022-07-25T03:25:56.383Z,22.20
2022-07-25T03:28:24.737Z,22.20
2022-07-25T03:30:52.907Z,22.20
2022-07-25T03:33:20.172Z,22.20
2022-07-25T03:35:47.083Z,22.10
2022-07-25T03:38:14.138Z,22.10
2022-07-25T03:40:41.133Z,22.10
2022-07-25T03:43:07.924Z,22.10
2022-07-25T03:45:35.128Z,22.10
2022-07-25T03:48:02.122Z,22.10
2022-07-25T03:50:29.073Z,22.10
2022-07-25T03:52:56.006Z,22.10
2022-07-25T03:55:22.943Z,22.10
2022-07-25T03:57:49.760Z,22.10
2022-07-25T04:00:17.622Z,22.10
2022-07-25T04:02:44.765Z,22.10
2022-07-25T04:05:11.733Z,22.10
2022-07-25T04:07:39.038Z,22.10
2022-07-25T04:10:07.733Z,22.10
2022-07-25T04:12:34.738Z,22.10
2022-07-25T04:15:01.646Z,22.10
2022-07-25T04:17:29.103Z,22.10
2022-07-25T04:19:55.946Z,22.10
2022-07-25T04:22:23.622Z,22.10
2022-07-25T04:24:50.410Z,22.10
2022-07-25T04:27:17.171Z,22.10
2022-07-25T04:29:44.071Z,22.10
2022-07-25T04:32:10.953Z,22.20
2022-07-25T04:34:37.874Z,22.20
2022-07-25T04:37:04.685Z,22.20
2022-07-25T04:39:31.487Z,22.20
2022-07-25T04:41:58.399Z,22.20
2022-07-25T04:44:25.157Z,22.20
2022-07-25T04:46:51.911Z,22.10
2022-07-25T04:49:19.648Z,22.10
2022-07-25T04:51:46.513Z,22.10
2022-07-25T04:54:13.278Z,22.10
2022-07-25T04:56:40.511Z,22.10
2022-07-25T04:59:07.416Z,22.10
2022-07-25T05:01:36.952Z,22.10
2022-07-25T05:04:04.488Z,22.20
2022-07-25T05:06:31.558Z,22.20
2022-07-25T05:08:58.613Z,22.20
2022-07-25T05:11:25.356Z,22.10
2022-07-25T05:13:52.144Z,22.20
2022-07-25T05:16:19.000Z,22.20
2022-07-25T05:18:45.834Z,22.10
2022-07-25T05:21:12.832Z,22.10
2022-07-25T05:23:39.723Z,22.10
2022-07-25T05:26:06.779Z,22.10
2022-07-25T05:28:33.947Z,22.10
2022-07-25T05:31:01.902Z,22.10
2022-07-25T05:33:29.472Z,22.10
2022-07-25T05:35:57.370Z,22.10
2022-07-25T05:38:24.786Z,22.10
2022-07-25T05:40:52.366Z,22.10
2022-07-25T05:43:20.510Z,22.10
2022-07-25T05:45:47.965Z,22.10
2022-07-25T05:48:15.116Z,22.10
2022-07-25T05:50:42.494Z,22.10
2022-07-25T05:53:09.365Z,22.10
2022-07-25T05:55:40.213Z,22.10
2022-07-25T05:58:09.318Z,22.10
2022-07-25T06:00:36.411Z,22.10
2022-07-25T06:03:03.627Z,22.10
2022-07-25T06:05:30.601Z,22.10
2022-07-25T06:07:57.418Z,22.20
2022-07-25T06:10:24.426Z,22.20
2022-07-25T06:12:51.200Z,22.20
2022-07-25T06:15:23.161Z,22.20
2022-07-25T06:17:54.627Z,22.20
2022-07-25T06:20:21.640Z,22.20
2022-07-25T06:22:48.433Z,22.20
2022-07-25T06:25:15.370Z,22.30
2022-07-25T06:27:42.719Z,22.30
2022-07-25T06:30:19.627Z,22.30
2022-07-25T06:32:47.451Z,22.30
2022-07-25T06:35:14.614Z,22.30
2022-07-25T06:37:41.448Z,22.30
2022-07-25T06:40:09.127Z,22.30
2022-07-25T06:42:40.300Z,22.30
2022-07-25T06:45:11.604Z,22.30
2022-07-25T06:47:39.832Z,22.30
2022-07-25T06:50:11.315Z,22.30
2022-07-25T06:52:39.213Z,22.40
2022-07-25T06:55:07.508Z,22.40
2022-07-25T06:57:34.515Z,22.40
2022-07-25T07:00:01.352Z,22.40
2022-07-25T07:02:28.275Z,22.40
2022-07-25T07:04:55.043Z,22.40
2022-07-25T07:07:21.813Z,22.40
2022-07-25T07:09:48.601Z,22.40
2022-07-25T07:12:15.380Z,22.40
2022-07-25T07:14:44.357Z,22.40
2022-07-25T07:17:11.314Z,22.40
2022-07-25T07:19:44.302Z,22.40
2022-07-25T07:22:11.215Z,22.40
2022-07-25T07:24:45.067Z,22.40
2022-07-25T07:27:15.112Z,22.40
2022-07-25T07:29:45.986Z,22.40
2022-07-25T07:32:13.370Z,22.40
2022-07-25T07:34:40.203Z,22.40
2022-07-25T07:37:06.992Z,22.40
2022-07-25T07:39:33.748Z,22.40
2022-07-25T07:42:00.530Z,22.40
2022-07-25T07:44:27.294Z,22.50
2022-07-25T07:46:54.158Z,22.50
2022-07-25T07:49:21.115Z,22.40
2022-07-25T07:51:47.977Z,22.50
2022-07-25T07:54:33.483Z,22.40
2022-07-25T07:57:00.230Z,22.50
2022-07-25T07:59:27.058Z,22.50
2022-07-25T08:01:53.971Z,22.50
2022-07-25T08:04:20.799Z,22.50
2022-07-25T08:06:47.605Z,22.50
2022-07-25T08:09:14.473Z,22.50
2022-07-25T08:11:41.311Z,22.50
2022-07-25T08:14:08.523Z,22.60
2022-07-25T08:16:35.747Z,22.50
2022-07-25T08:19:02.650Z,22.60
2022-07-25T08:21:29.423Z,22.60
2022-07-25T08:23:56.199Z,22.50
2022-07-25T08:26:22.977Z,22.60
2022-07-25T08:28:55.662Z,22.50
2022-07-25T08:31:36.624Z,22.50
2022-07-25T08:34:04.106Z,22.50
2022-07-25T08:36:34.884Z,22.60
2022-07-25T08:39:01.979Z,22.60
2022-07-25T08:41:29.147Z,22.60
2022-07-25T08:43:56.144Z,22.60
2022-07-25T08:46:23.725Z,22.60
2022-07-25T08:48:52.139Z,22.60
2022-07-25T08:51:19.318Z,22.60
2022-07-25T08:53:48.646Z,22.60
2022-07-25T08:56:20.765Z,22.70
2022-07-25T08:58:48.322Z,22.70
2022-07-25T09:01:15.386Z,22.70
2022-07-25T09:03:45.253Z,22.70
2022-07-25T09:06:22.643Z,22.70
2022-07-25T09:08:57.222Z,22.70
2022-07-25T09:11:37.437Z,22.70
2022-07-25T09:14:07.439Z,22.70
2022-07-25T09:16:43.082Z,22.70
2022-07-25T09:19:16.507Z,22.80
2022-07-25T09:21:45.669Z,22.80
2022-07-25T09:24:18.658Z,22.80
2022-07-25T09:26:49.924Z,22.80
2022-07-25T09:29:37.972Z,22.80
2022-07-25T09:32:19.610Z,22.90
2022-07-25T09:34:48.594Z,22.90
2022-07-25T09:37:17.914Z,22.90
2022-07-25T09:39:49.524Z,22.80
2022-07-25T09:42:27.779Z,22.80
2022-07-25T09:45:02.147Z,22.90
2022-07-25T09:47:34.068Z,22.80
2022-07-25T09:50:02.621Z,22.80
2022-07-25T09:52:30.877Z,22.80
2022-07-25T09:54:58.630Z,22.80
2022-07-25T09:57:29.175Z,22.80
2022-07-25T09:59:59.127Z,22.80
2022-07-25T10:02:44.324Z,22.70
2022-07-25T10:05:11.571Z,22.80
2022-07-25T10:07:42.476Z,22.70
2022-07-25T10:10:19.410Z,22.70
2022-07-25T10:13:05.222Z,22.80
2022-07-25T10:15:51.184Z,22.80
2022-07-25T10:18:23.186Z,22.80
2022-07-25T10:20:52.456Z,22.80
2022-07-25T10:23:19.304Z,22.80
2022-07-25T10:25:49.135Z,22.80
2022-07-25T10:28:19.086Z,22.80
2022-07-25T10:30:46.577Z,22.80
2022-07-25T10:33:19.756Z,22.80
2022-07-25T10:35:47.228Z,22.80
2022-07-25T10:38:14.085Z,22.80
2022-07-25T10:40:44.282Z,22.90
2022-07-25T10:43:20.700Z,22.90
2022-07-25T10:46:00.066Z,22.90
2022-07-25T10:48:38.500Z,22.90
2022-07-25T10:51:13.590Z,22.90
2022-07-25T10:53:46.352Z,23.00
2022-07-25T10:56:15.158Z,23.00
2022-07-25T10:58:58.356Z,23.00
2022-07-25T11:01:36.587Z,23.00
2022-07-25T11:04:14.536Z,23.00
2022-07-25T11:06:42.736Z,23.10
2022-07-25T11:09:27.312Z,23.10
2022-07-25T11:11:57.297Z,23.10
2022-07-25T11:14:40.902Z,23.10
2022-07-25T11:17:17.051Z,23.20
2022-07-25T11:19:52.932Z,23.20
2022-07-25T11:22:19.774Z,23.20
2022-07-25T11:24:47.841Z,23.20
2022-07-25T11:27:27.376Z,23.20
2022-07-25T11:30:07.489Z,23.20
2022-07-25T11:33:03.523Z,23.20
2022-07-25T11:35:32.650Z,23.20
2022-07-25T11:38:02.534Z,23.10
2022-07-25T11:40:30.829Z,23.10
2022-07-25T11:43:01.554Z,23.10
2022-07-25T11:45:33.414Z,23.10
2022-07-25T11:48:08.857Z,23.10
2022-07-25T11:50:38.551Z,23.10
2022-07-25T11:53:07.793Z,23.10
2022-07-25T11:55:38.124Z,23.10
2022-07-25T11:58:05.742Z,23.10
2022-07-25T12:00:41.323Z,23.10
2022-07-25T12:03:19.843Z,23.20
2022-07-25T12:05:52.815Z,23.20
2022-07-25T12:08:23.085Z,23.20
2022-07-25T12:10:54.905Z,23.20
2022-07-25T12:13:27.880Z,23.20
2022-07-25T12:15:56.789Z,23.30
2022-07-25T12:18:23.879Z,23.30
2022-07-25T12:20:51.023Z,23.30
2022-07-25T12:23:18.769Z,23.30
2022-07-25T12:25:46.694Z,23.40
2022-07-25T12:28:14.463Z,23.40
2022-07-25T12:30:43.356Z,23.40
2022-07-25T12:33:10.530Z,23.40
2022-07-25T12:35:37.500Z,23.40
2022-07-25T12:38:05.256Z,23.40
2022-07-25T12:40:33.223Z,23.40
2022-07-25T12:43:01.123Z,23.40
2022-07-25T12:45:28.160Z,23.40
2022-07-25T12:47:55.212Z,23.40
2022-07-25T12:50:22.321Z,23.40
2022-07-25T12:52:49.094Z,23.40
2022-07-25T12:55:17.886Z,23.40
2022-07-25T12:57:45.373Z,23.40
2022-07-25T13:00:16.253Z,23.40
2022-07-25T13:02:43.969Z,23.40
2022-07-25T13:05:11.137Z,23.50
2022-07-25T13:07:38.219Z,23.50
2022-07-25T13:10:06.366Z,23.50
2022-07-25T13:12:33.231Z,23.50
2022-07-25T13:15:00.445Z,23.50
2022-07-25T13:17:27.994Z,23.60
2022-07-25T13:19:56.396Z,23.50
2022-07-25T13:22:24.384Z,23.60
2022-07-25T13:24:52.403Z,23.60
2022-07-25T13:27:22.912Z,23.60
2022-07-25T13:29:56.168Z,23.70
2022-07-25T13:32:23.464Z,23.70
2022-07-25T13:34:53.809Z,23.70
2022-07-25T13:37:20.670Z,23.70
2022-07-25T13:39:47.484Z,23.70
2022-07-25T13:42:14.349Z,23.70
2022-07-25T13:44:41.597Z,23.70
2022-07-25T13:47:11.340Z,23.70
2022-07-25T13:49:38.708Z,23.80
2022-07-25T13:52:05.939Z,23.80
2022-07-25T13:54:32.896Z,23.80
2022-07-25T13:57:01.200Z,23.80
2022-07-25T13:59:28.051Z,23.80
2022-07-25T14:01:54.876Z,23.80
2022-07-25T14:04:21.813Z,23.80
2022-07-25T14:06:52.001Z,23.90
2022-07-25T14:09:20.614Z,23.80
2022-07-25T14:11:47.773Z,23.90
2022-07-25T14:14:14.652Z,23.90
2022-07-25T14:16:43.154Z,23.90
2022-07-25T14:19:10.827Z,23.90
2022-07-25T14:21:38.009Z,23.90
2022-07-25T14:24:05.385Z,23.90
2022-07-25T14:26:34.307Z,23.90
2022-07-25T14:29:01.529Z,23.90
2022-07-25T14:31:28.523Z,23.90
2022-07-25T14:33:55.393Z,23.90
2022-07-25T14:36:22.327Z,23.90
2022-07-25T14:38:49.171Z,24.00
2022-07-25T14:41:16.264Z,24.00
2022-07-25T14:43:44.123Z,24.00
2022-07-25T14:46:11.051Z,24.00
2022-07-25T14:48:39.157Z,24.00
2022-07-25T14:51:06.667Z,24.00
2022-07-25T14:53:34.377Z,23.90
2022-07-25T14:56:04.269Z,23.90
2022-07-25T14:58:31.857Z,23.90
2022-07-25T15:00:58.933Z,23.80
2022-07-25T15:03:26.087Z,23.80
2022-07-25T15:05:52.996Z,23.80
2022-07-25T15:08:19.954Z,23.80
2022-07-25T15:10:47.063Z,23.80
2022-07-25T15:13:30.519Z,23.80
2022-07-25T15:15:59.049Z,23.80
2022-07-25T15:18:25.903Z,23.70
2022-07-25T15:20:52.773Z,23.80
2022-07-25T15:23:24.681Z,23.80
2022-07-25T15:26:08.643Z,23.80
2022-07-25T15:28:37.799Z,23.80
2022-07-25T15:31:05.671Z,23.80
2022-07-25T15:33:32.758Z,23.70
2022-07-25T15:35:59.677Z,23.70
2022-07-25T15:38:27.321Z,23.70
2022-07-25T15:40:54.277Z,23.60
2022-07-25T15:43:21.541Z,23.60
2022-07-25T15:45:48.349Z,23.60
2022-07-25T15:48:16.421Z,23.50
2022-07-25T15:50:46.230Z,23.50
2022-07-25T15:53:13.543Z,23.50
2022-07-25T15:55:41.716Z,23.50
2022-07-25T15:58:10.101Z,23.50
2022-07-25T16:00:38.440Z,23.50
2022-07-25T16:03:05.759Z,23.50
2022-07-25T16:05:32.863Z,23.50
2022-07-25T16:08:03.373Z,23.50
2022-07-25T16:10:32.176Z,23.50
2022-07-25T16:12:59.582Z,23.50
2022-07-25T16:15:27.033Z,23.50
2022-07-25T16:18:01.724Z,23.50
2022-07-25T16:20:33.907Z,23.50
2022-07-25T16:23:01.088Z,23.50
2022-07-25T16:25:29.811Z,23.50
2022-07-25T16:27:57.094Z,23.50
2022-07-25T16:30:24.550Z,23.60
2022-07-25T16:32:54.626Z,23.60
2022-07-25T16:35:21.751Z,23.60
2022-07-25T16:37:48.690Z,23.70
2022-07-25T16:40:17.504Z,23.70
2022-07-25T16:42:44.492Z,23.70
2022-07-25T16:45:12.082Z,23.70
2022-07-25T16:47:40.929Z,23.70
2022-07-25T16:50:08.136Z,23.70
2022-07-25T16:52:35.215Z,23.70
2022-07-25T16:55:02.207Z,23.70
2022-07-25T16:57:29.329Z,23.70
2022-07-25T16:59:56.134Z,23.70
2022-07-25T17:02:28.967Z,23.70
2022-07-25T17:04:56.809Z,23.60
2022-07-25T17:07:23.810Z,23.50
2022-07-25T17:09:50.627Z,23.50
2022-07-25T17:12:17.917Z,23.50
2022-07-25T17:14:45.184Z,23.40
2022-07-25T17:17:12.378Z,23.40
2022-07-25T17:19:42.006Z,23.40
2022-07-25T17:22:09.732Z,23.40
2022-07-25T17:24:37.529Z,23.40
2022-07-25T17:27:04.510Z,23.40
2022-07-25T17:29:31.497Z,23.30
2022-07-25T17:31:58.386Z,23.30
2022-07-25T17:34:28.279Z,23.30
2022-07-25T17:36:55.295Z,23.20
2022-07-25T17:39:22.147Z,23.20
2022-07-25T17:41:49.195Z,23.20
2022-07-25T17:44:16.468Z,23.10
2022-07-25T17:46:43.928Z,23.10
2022-07-25T17:49:10.877Z,23.10
2022-07-25T17:51:39.042Z,23.00
2022-07-25T17:54:06.746Z,23.00
2022-07-25T17:56:34.066Z,23.00
2022-07-25T17:59:03.129Z,23.00
2022-07-25T18:01:31.235Z,23.00
2022-07-25T18:03:58.310Z,23.00
2022-07-25T18:06:29.662Z,23.00
2022-07-25T18:08:57.461Z,23.00
2022-07-25T18:11:24.606Z,23.00
2022-07-25T18:13:51.629Z,23.00
2022-07-25T18:16:18.522Z,23.00
2022-07-25T18:18:45.403Z,23.00
2022-07-25T18:21:12.820Z,23.00
2022-07-25T18:23:39.590Z,23.00
2022-07-25T18:26:06.384Z,23.00
2022-07-25T18:28:33.236Z,22.90
2022-07-25T18:31:00.101Z,23.00
2022-07-25T18:33:27.029Z,22.90
2022-07-25T18:35:53.998Z,22.90
2022-07-25T18:38:20.804Z,22.90
2022-07-25T18:40:47.654Z,22.90
2022-07-25T18:43:15.253Z,22.90
2022-07-25T18:45:43.340Z,22.90
2022-07-25T18:48:11.618Z,22.90
2022-07-25T18:50:38.391Z,22.90
2022-07-25T18:53:05.376Z,22.80
2022-07-25T18:55:32.437Z,22.90
2022-07-25T18:57:59.583Z,22.90
2022-07-25T19:00:26.527Z,22.90
2022-07-25T19:02:53.325Z,22.90
2022-07-25T19:05:20.315Z,22.90
2022-07-25T19:07:47.310Z,22.90
2022-07-25T19:10:14.365Z,22.90
2022-07-25T19:12:41.248Z,22.90
2022-07-25T19:15:08.502Z,23.00
2022-07-25T19:17:37.046Z,23.00
2022-07-25T19:20:05.574Z,23.00
2022-07-25T19:22:32.611Z,23.00
2022-07-25T19:25:01.462Z,23.00
2022-07-25T19:27:28.978Z,23.00
2022-07-25T19:29:55.791Z,23.00
2022-07-25T19:32:22.757Z,23.00
2022-07-25T19:34:49.599Z,23.00
2022-07-25T19:37:16.410Z,23.00
2022-07-25T19:39:43.399Z,23.00
2022-07-25T19:42:12.162Z,23.10
2022-07-25T19:44:39.208Z,23.10
2022-07-25T19:47:09.899Z,23.10
2022-07-25T19:49:40.071Z,23.10
2022-07-25T19:52:10.802Z,23.10
2022-07-25T19:54:38.112Z,23.10
2022-07-25T19:57:05.163Z,23.10
2022-07-25T19:59:32.119Z,23.10
2022-07-25T20:01:59.049Z,23.10
2022-07-25T20:04:26.099Z,23.10
2022-07-25T20:06:52.873Z,23.10
2022-07-25T20:09:20.515Z,23.10
2022-07-25T20:11:47.463Z,23.10
2022-07-25T20:14:14.462Z,23.10
2022-07-25T20:16:41.413Z,23.10
2022-07-25T20:19:11.746Z,23.00
2022-07-25T20:21:40.057Z,23.10
2022-07-25T20:24:07.540Z,23.00
2022-07-25T20:26:34.479Z,23.00
2022-07-25T20:29:01.534Z,23.00
2022-07-25T20:31:28.571Z,23.00
2022-07-25T20:33:55.564Z,23.00
2022-07-25T20:36:22.448Z,23.00
2022-07-25T20:38:49.364Z,22.90
2022-07-25T20:41:16.166Z,22.90
2022-07-25T20:43:43.339Z,22.90
2022-07-25T20:46:10.290Z,22.90
2022-07-25T20:48:37.275Z,22.90
2022-07-25T20:51:04.583Z,22.90
2022-07-25T20:53:31.413Z,22.90
2022-07-25T20:55:58.499Z,22.90
2022-07-25T20:58:25.359Z,22.90
2022-07-25T21:00:53.125Z,22.90
2022-07-25T21:03:20.008Z,22.90
2022-07-25T21:05:47.214Z,22.90
2022-07-25T21:08:15.207Z,23.00
2022-07-25T21:10:42.016Z,23.00
2022-07-25T21:13:08.860Z,23.00
2022-07-25T21:15:35.847Z,22.90
2022-07-25T21:18:02.664Z,23.00
2022-07-25T21:20:29.859Z,23.00
2022-07-25T21:22:56.773Z,23.00
2022-07-25T21:25:23.742Z,23.00
2022-07-25T21:27:50.738Z,23.00
2022-07-25T21:30:17.572Z,23.00
2022-07-25T21:32:44.911Z,23.00
2022-07-25T21:35:11.806Z,23.00
2022-07-25T21:37:38.674Z,22.90
2022-07-25T21:40:06.059Z,22.90
2022-07-25T21:42:32.829Z,22.90
2022-07-25T21:44:59.944Z,23.00
2022-07-25T21:47:26.724Z,22.90
2022-07-25T21:50:12.976Z,22.90
2022-07-25T21:52:39.974Z,22.90
2022-07-25T21:55:07.897Z,22.90
2022-07-25T21:57:34.853Z,22.90
2022-07-25T22:00:01.685Z,23.00
2022-07-25T22:02:29.052Z,23.00
2022-07-25T22:04:55.834Z,23.00
2022-07-25T22:07:22.890Z,23.00
2022-07-25T22:09:49.646Z,23.00
2022-07-25T22:12:16.445Z,23.00
2022-07-25T22:14:43.269Z,23.10
2022-07-25T22:17:10.198Z,23.10
2022-07-25T22:19:37.017Z,23.10
2022-07-25T22:22:05.855Z,23.10
2022-07-25T22:24:33.315Z,23.10
2022-07-25T22:27:00.456Z,23.10
2022-07-25T22:29:27.264Z,23.10
2022-07-25T22:31:54.091Z,23.10
2022-07-25T22:34:21.005Z,23.20
2022-07-25T22:36:47.805Z,23.20
2022-07-25T22:39:15.734Z,23.20
2022-07-25T22:41:42.569Z,23.20
2022-07-25T22:44:09.325Z,23.20
2022-07-25T22:46:36.283Z,23.20
2022-07-25T22:49:03.673Z,23.20
2022-07-25T22:51:30.810Z,23.20
2022-07-25T22:53:58.948Z,23.20
2022-07-25T22:56:26.619Z,23.20
2022-07-25T22:58:53.895Z,23.20
2022-07-25T23:01:21.550Z,23.20
2022-07-25T23:03:50.072Z,23.20
2022-07-25T23:06:18.533Z,23.20
2022-07-25T23:08:45.493Z,23.30
2022-07-25T23:11:12.387Z,23.20
2022-07-25T23:13:39.178Z,23.20
2022-07-25T23:16:09.425Z,23.30
2022-07-25T23:18:37.713Z,23.20
2022-07-25T23:21:04.705Z,23.30
2022-07-25T23:23:31.650Z,23.30
2022-07-25T23:25:58.442Z,23.30
2022-07-25T23:28:25.225Z,23.30
2022-07-25T23:30:52.037Z,23.30
2022-07-25T23:33:18.848Z,23.30
2022-07-25T23:35:52.395Z,23.30
2022-07-25T23:38:19.186Z,23.30
2022-07-25T23:40:46.058Z,23.30
2022-07-25T23:43:13.666Z,23.30
2022-07-25T23:45:43.753Z,23.30
2022-07-25T23:48:13.223Z,23.30
2022-07-25T23:50:39.977Z,23.30
2022-07-25T23:53:06.773Z,23.30
2022-07-25T23:55:33.555Z,23.30
2022-07-25T23:58:00.301Z,23.30
